Time;durP1;ratioP1;P1;durP2;ratioP2;P2;SDS_P1;SDS_P2;PMS_P1;PMS_P2;Temp;Humidity;BMP_temperature;BMP_pressure;BME280_temperature;BME280_humidity;BME280_pressure;Samples;Min_cycle;Max_cycle;Signal;HPM_P1;HPM_P2
2022/01/29 00:01:12;;;;;;;79.22;36.70;;;6.80;99.90;;;;;;5075634;28;20024;-76
2022/01/29 00:03:38;;;;;;;82.18;39.42;;;6.90;99.90;;;;;;5075550;28;20060;-74
2022/01/29 00:06:04;;;;;;;90.97;39.03;;;6.80;99.90;;;;;;5075650;28;20028;-74
2022/01/29 00:08:31;;;;;;;84.68;39.28;;;6.80;99.90;;;;;;5078105;28;20036;-75
2022/01/29 00:11:01;;;;;;;80.75;39.33;;;6.80;99.90;;;;;;5085414;28;20036;-74
2022/01/29 00:13:27;;;;;;;94.70;40.00;;;6.80;99.90;;;;;;5080351;28;20108;-74
2022/01/29 00:15:52;;;;;;;88.97;40.20;;;6.80;99.90;;;;;;5076286;28;20398;-74
2022/01/29 00:18:18;;;;;;;95.80;40.88;;;6.90;99.90;;;;;;5075225;28;20028;-74
2022/01/29 00:20:43;;;;;;;97.47;41.85;;;6.90;99.90;;;;;;5075243;28;20025;-74
2022/01/29 00:23:09;;;;;;;97.38;42.90;;;6.90;99.90;;;;;;5073812;28;20025;-74
2022/01/29 00:25:35;;;;;;;97.63;42.67;;;6.90;99.90;;;;;;5074927;28;20035;-74
2022/01/29 00:28:00;;;;;;;93.50;41.58;;;6.90;99.90;;;;;;5074809;28;20424;-75
2022/01/29 00:30:35;;;;;;;92.63;43.75;;;6.90;99.90;;;;;;5076494;28;20049;-75
2022/01/29 00:33:01;;;;;;;92.70;41.80;;;6.90;99.90;;;;;;5079594;28;20021;-74
2022/01/29 00:35:27;;;;;;;96.03;42.35;;;6.90;99.90;;;;;;5074814;28;20108;-74
2022/01/29 00:37:52;;;;;;;93.43;43.47;;;6.90;99.90;;;;;;5074684;28;20032;-74
2022/01/29 00:40:18;;;;;;;102.82;44.85;;;6.90;99.90;;;;;;5074332;28;20545;-74
2022/01/29 00:42:43;;;;;;;96.35;42.25;;;6.90;99.90;;;;;;5074850;28;20021;-74
2022/01/29 00:45:09;;;;;;;101.80;43.30;;;6.90;99.90;;;;;;5075077;28;20103;-74
2022/01/29 00:47:35;;;;;;;111.88;45.35;;;6.90;99.90;;;;;;5074737;28;20036;-75
2022/01/29 00:50:00;;;;;;;104.93;45.28;;;6.90;99.90;;;;;;5076008;28;20485;-74
2022/01/29 00:52:28;;;;;;;97.35;43.28;;;6.90;99.90;;;;;;5080679;28;20077;-75
2022/01/29 00:54:54;;;;;;;104.65;44.65;;;6.90;99.90;;;;;;5078314;28;20020;-74
2022/01/29 00:57:19;;;;;;;112.15;45.03;;;6.90;99.90;;;;;;5074538;28;20027;-74
2022/01/29 00:59:45;;;;;;;108.80;45.88;;;7.00;99.90;;;;;;5074081;28;20031;-74
2022/01/29 01:02:11;;;;;;;103.13;44.65;;;7.00;99.90;;;;;;5075651;28;20036;-75
2022/01/29 01:04:39;;;;;;;108.88;46.10;;;7.00;99.90;;;;;;5074560;28;20096;-75
2022/01/29 01:07:06;;;;;;;107.50;46.58;;;7.00;99.90;;;;;;5073168;28;20361;-75
2022/01/29 01:09:32;;;;;;;110.28;47.97;;;7.00;99.90;;;;;;5074663;28;20444;-75
2022/01/29 01:11:58;;;;;;;107.95;46.88;;;7.00;99.90;;;;;;5082679;28;20017;-75
2022/01/29 01:14:23;;;;;;;107.32;45.72;;;7.00;99.90;;;;;;5078057;28;20025;-75
2022/01/29 01:16:49;;;;;;;119.72;48.78;;;6.90;99.90;;;;;;5074436;28;20028;-75
2022/01/29 01:19:14;;;;;;;110.53;48.13;;;7.00;99.90;;;;;;5075109;28;20108;-75
2022/01/29 01:21:40;;;;;;;113.95;46.40;;;7.00;99.90;;;;;;5075174;28;20494;-75
2022/01/29 01:24:06;;;;;;;109.85;48.90;;;7.00;99.90;;;;;;5072574;28;20032;-75
2022/01/29 01:26:31;;;;;;;118.32;48.08;;;7.00;99.90;;;;;;5074004;28;20028;-75
2022/01/29 01:28:57;;;;;;;113.57;48.78;;;7.00;99.90;;;;;;5073734;28;20046;-75
2022/01/29 01:31:23;;;;;;;118.15;50.17;;;6.90;99.90;;;;;;5074015;28;20020;-75
2022/01/29 01:33:50;;;;;;;118.43;50.72;;;6.90;99.90;;;;;;5074226;28;20082;-75
2022/01/29 01:36:19;;;;;;;115.95;48.90;;;6.90;99.90;;;;;;5074250;28;20103;-75
2022/01/29 01:38:52;;;;;;;107.90;48.08;;;6.90;99.90;;;;;;5071963;28;20028;-75
2022/01/29 01:41:23;;;;;;;124.13;50.50;;;6.90;99.90;;;;;;5072902;28;20047;-75
2022/01/29 01:43:48;;;;;;;116.57;49.50;;;6.90;99.90;;;;;;5072960;28;20074;-74
2022/01/29 01:46:14;;;;;;;118.88;49.90;;;6.90;99.90;;;;;;5073332;28;20421;-74
2022/01/29 01:48:40;;;;;;;122.43;48.40;;;6.90;99.90;;;;;;5072573;28;20024;-76
2022/01/29 01:51:06;;;;;;;130.85;51.63;;;6.90;99.90;;;;;;5083789;28;20052;-74
2022/01/29 01:53:32;;;;;;;125.45;50.65;;;6.90;99.90;;;;;;5085065;28;20017;-74
2022/01/29 01:55:58;;;;;;;115.90;50.00;;;6.90;99.90;;;;;;5090607;28;20024;-74
2022/01/29 01:58:24;;;;;;;123.85;49.90;;;6.90;99.90;;;;;;5083118;28;20393;-74
2022/01/29 02:00:49;;;;;;;121.22;50.35;;;6.90;99.90;;;;;;5072700;28;20459;-74
2022/01/29 02:03:15;;;;;;;120.25;49.53;;;6.90;99.90;;;;;;5073695;28;20028;-74
2022/01/29 02:05:41;;;;;;;124.95;50.13;;;6.90;99.90;;;;;;5073712;28;20029;-74
2022/01/29 02:08:08;;;;;;;122.00;50.08;;;6.90;99.90;;;;;;5074189;28;20091;-75
2022/01/29 02:10:34;;;;;;;118.53;50.55;;;6.90;99.90;;;;;;5072059;28;20382;-75
2022/01/29 02:13:03;;;;;;;122.55;49.20;;;6.80;99.90;;;;;;5073512;28;20027;-75
2022/01/29 02:15:29;;;;;;;123.88;50.58;;;6.80;99.90;;;;;;5074025;28;20051;-74
2022/01/29 02:17:55;;;;;;;126.70;50.45;;;6.80;99.90;;;;;;5073888;28;20080;-74
2022/01/29 02:20:29;;;;;;;117.53;49.08;;;6.80;99.90;;;;;;5072637;28;20501;-74
2022/01/29 02:22:55;;;;;;;124.05;47.85;;;6.80;99.90;;;;;;5073724;28;20084;-74
2022/01/29 02:25:39;;;;;;;124.57;48.45;;;6.80;99.90;;;;;;5074749;28;20071;-74
2022/01/29 02:28:10;;;;;;;124.20;48.05;;;6.80;99.90;;;;;;5074089;28;20031;-74
2022/01/29 02:30:39;;;;;;;132.00;50.28;;;6.80;99.90;;;;;;5073898;28;20055;-74
2022/01/29 02:33:09;;;;;;;124.53;48.42;;;6.80;99.90;;;;;;5073446;28;20077;-74
2022/01/29 02:35:41;;;;;;;118.57;48.73;;;6.80;99.90;;;;;;5073201;28;20131;-74
2022/01/29 02:38:07;;;;;;;128.65;52.00;;;6.70;99.90;;;;;;5072202;28;20407;-74
2022/01/29 02:40:43;;;;;;;133.63;50.30;;;6.80;99.90;;;;;;5072484;28;20033;-74
2022/01/29 02:43:12;;;;;;;130.25;51.65;;;6.70;99.90;;;;;;5072213;28;20031;-74
2022/01/29 02:45:38;;;;;;;121.75;49.58;;;6.80;99.90;;;;;;5072194;28;20040;-74
2022/01/29 02:48:04;;;;;;;123.80;49.05;;;6.80;99.90;;;;;;5072176;28;20064;-74
2022/01/29 02:50:30;;;;;;;119.45;49.65;;;6.80;99.90;;;;;;5072550;28;20486;-75
2022/01/29 02:52:55;;;;;;;118.60;48.60;;;6.80;99.90;;;;;;5077493;28;20025;-75
2022/01/29 02:55:21;;;;;;;123.00;51.28;;;6.80;99.90;;;;;;5076669;28;20035;-74
2022/01/29 02:57:46;;;;;;;121.40;50.92;;;6.80;99.90;;;;;;5077205;28;20021;-74
2022/01/29 03:00:12;;;;;;;127.10;50.13;;;6.80;99.90;;;;;;5076730;28;20366;-74
2022/01/29 03:02:38;;;;;;;132.88;53.60;;;6.80;99.90;;;;;;5075794;28;20052;-74
2022/01/29 03:05:04;;;;;;;120.88;50.28;;;6.80;99.90;;;;;;5075723;28;20493;-74
2022/01/29 03:07:30;;;;;;;120.57;50.75;;;6.80;99.90;;;;;;5076514;28;20032;-74
2022/01/29 03:09:55;;;;;;;128.85;51.55;;;6.80;99.90;;;;;;5075351;28;20033;-74
2022/01/29 03:12:21;;;;;;;124.00;50.20;;;6.80;99.90;;;;;;5081588;28;20017;-74
2022/01/29 03:14:46;;;;;;;122.18;52.28;;;6.80;99.90;;;;;;5083225;28;20032;-74
2022/01/29 03:17:12;;;;;;;128.50;52.30;;;6.80;99.90;;;;;;5076474;28;20020;-74
2022/01/29 03:19:37;;;;;;;118.05;48.90;;;6.80;99.90;;;;;;5075264;28;20031;-74
2022/01/29 03:22:03;;;;;;;117.63;50.95;;;6.80;99.90;;;;;;5075038;28;20028;-74
2022/01/29 03:24:28;;;;;;;122.72;50.63;;;6.80;99.90;;;;;;5076136;28;20033;-74
2022/01/29 03:26:54;;;;;;;116.60;47.35;;;6.80;99.90;;;;;;5076249;28;20051;-74
2022/01/29 03:29:19;;;;;;;119.30;48.90;;;6.80;99.90;;;;;;5075993;28;20107;-74
2022/01/29 03:31:45;;;;;;;117.25;49.65;;;6.80;99.90;;;;;;5074969;28;20074;-75
2022/01/29 03:34:10;;;;;;;113.95;49.22;;;6.80;99.90;;;;;;5076104;28;20025;-74
2022/01/29 03:36:36;;;;;;;102.75;46.65;;;6.80;99.90;;;;;;5075265;28;20477;-74
2022/01/29 03:39:02;;;;;;;111.95;47.53;;;6.80;99.90;;;;;;5083615;28;20035;-74
2022/01/29 03:41:29;;;;;;;107.30;47.50;;;6.90;99.90;;;;;;5095583;28;20024;-74
2022/01/29 03:43:57;;;;;;;97.38;45.78;;;6.90;99.90;;;;;;5081663;28;20073;-74
2022/01/29 03:46:23;;;;;;;104.28;45.95;;;6.90;99.90;;;;;;5076415;28;20131;-74
2022/01/29 03:48:48;;;;;;;104.88;43.72;;;6.90;99.90;;;;;;5076301;28;20453;-75
2022/01/29 03:51:14;;;;;;;102.18;45.88;;;6.90;99.90;;;;;;5076343;28;20382;-74
2022/01/29 03:53:39;;;;;;;106.68;44.80;;;6.90;99.90;;;;;;5078932;28;20100;-74
2022/01/29 03:56:05;;;;;;;101.72;43.17;;;6.90;99.90;;;;;;5084568;28;20043;-74
2022/01/29 03:58:31;;;;;;;93.30;41.53;;;7.00;99.90;;;;;;5077967;28;20032;-74
2022/01/29 04:00:56;;;;;;;85.82;40.78;;;7.00;99.90;;;;;;5075540;28;20468;-75
2022/01/29 04:03:22;;;;;;;96.35;40.85;;;7.00;99.90;;;;;;5074339;28;20024;-75
2022/01/29 04:05:47;;;;;;;89.30;40.50;;;7.00;99.90;;;;;;5074168;28;20028;-74
2022/01/29 04:08:16;;;;;;;87.45;40.33;;;7.00;99.90;;;;;;5075341;28;20032;-74
2022/01/29 04:10:42;;;;;;;85.25;40.42;;;7.10;99.90;;;;;;5075450;28;20385;-74
2022/01/29 04:13:11;;;;;;;92.40;40.35;;;7.10;99.90;;;;;;5075610;28;20047;-74
2022/01/29 04:15:36;;;;;;;108.55;43.45;;;7.10;99.90;;;;;;5075447;28;20494;-74
2022/01/29 04:18:02;;;;;;;91.80;40.42;;;7.10;99.90;;;;;;5075686;28;20056;-75
2022/01/29 04:20:28;;;;;;;96.90;41.75;;;7.10;99.90;;;;;;5080878;28;20054;-75
2022/01/29 04:22:54;;;;;;;84.72;40.35;;;7.10;99.90;;;;;;5086783;28;20024;-74
2022/01/29 04:25:19;;;;;;;90.20;42.35;;;7.20;99.90;;;;;;5087453;28;20040;-75
2022/01/29 04:27:47;;;;;;;94.43;42.50;;;7.20;99.90;;;;;;5088396;28;20435;-74
2022/01/29 04:30:29;;;;;;;95.95;41.17;;;7.20;99.90;;;;;;5079382;28;20020;-74
2022/01/29 04:33:01;;;;;;;92.18;41.15;;;7.10;99.90;;;;;;5075488;28;20017;-74
2022/01/29 04:35:27;;;;;;;93.88;42.15;;;7.20;99.90;;;;;;5075361;28;20375;-74
2022/01/29 04:37:53;;;;;;;95.30;43.22;;;7.10;99.90;;;;;;5078949;28;20021;-75
2022/01/29 04:40:20;;;;;;;91.97;40.55;;;7.20;99.90;;;;;;5082355;28;20039;-74
2022/01/29 04:42:45;;;;;;;96.78;41.80;;;7.30;99.90;;;;;;5073657;28;20052;-74
2022/01/29 04:45:12;;;;;;;96.07;41.83;;;7.20;99.90;;;;;;5073689;28;20028;-74
2022/01/29 04:47:37;;;;;;;102.47;41.42;;;7.20;99.90;;;;;;5074906;28;20382;-74
2022/01/29 04:50:04;;;;;;;95.20;41.20;;;7.20;99.90;;;;;;5056669;28;20025;-75
2022/01/29 04:52:29;;;;;;;101.28;41.53;;;7.20;99.90;;;;;;5074945;28;20078;-75
2022/01/29 04:54:55;;;;;;;98.97;41.25;;;7.30;99.90;;;;;;5074750;28;20021;-75
2022/01/29 04:57:20;;;;;;;95.63;42.60;;;7.30;99.90;;;;;;5074650;28;20024;-74
2022/01/29 04:59:46;;;;;;;103.97;42.28;;;7.30;99.90;;;;;;5074935;28;20036;-74
2022/01/29 05:02:11;;;;;;;95.47;41.33;;;7.30;99.90;;;;;;5074662;28;20431;-75
2022/01/29 05:04:37;;;;;;;99.53;42.55;;;7.40;99.90;;;;;;5074632;28;20032;-74
2022/01/29 05:07:03;;;;;;;87.50;41.05;;;7.40;99.90;;;;;;5075555;28;20031;-74
2022/01/29 05:09:28;;;;;;;104.25;42.22;;;7.30;99.90;;;;;;5075001;28;20111;-74
2022/01/29 05:11:55;;;;;;;103.22;42.50;;;7.40;99.90;;;;;;5074939;28;20048;-74
2022/01/29 05:14:35;;;;;;;102.68;41.40;;;7.40;99.90;;;;;;5076746;28;20021;-74
2022/01/29 05:27:57;;;;;;;97.20;39.42;;;7.50;99.90;;;;;;5074273;28;20115;-74
2022/01/29 05:30:22;;;;;;;92.72;40.92;;;7.50;99.90;;;;;;5073852;28;20099;-74
2022/01/29 05:32:48;;;;;;;90.53;40.50;;;7.50;99.90;;;;;;5075268;28;20035;-74
2022/01/29 05:35:13;;;;;;;95.43;41.22;;;7.40;99.90;;;;;;5074306;28;20040;-74
2022/01/29 05:37:39;;;;;;;96.47;39.47;;;7.50;99.90;;;;;;5074473;28;20409;-74
2022/01/29 05:40:05;;;;;;;96.45;41.60;;;7.50;99.90;;;;;;5073744;28;20025;-75
2022/01/29 05:42:30;;;;;;;97.47;40.88;;;7.60;99.90;;;;;;5073609;28;20505;-74
2022/01/29 05:44:56;;;;;;;83.35;37.10;;;7.60;99.90;;;;;;5074481;28;20029;-74
2022/01/29 05:47:21;;;;;;;93.07;40.63;;;7.60;99.90;;;;;;5074629;28;20051;-75
2022/01/29 05:49:47;;;;;;;102.45;42.50;;;7.60;99.90;;;;;;5072308;28;20028;-75
2022/01/29 05:52:13;;;;;;;95.65;40.42;;;7.60;99.90;;;;;;5073500;28;20115;-75
2022/01/29 05:54:38;;;;;;;103.00;41.40;;;7.60;99.90;;;;;;5073812;28;20032;-74
2022/01/29 05:57:04;;;;;;;94.18;40.88;;;7.60;99.90;;;;;;5073657;28;20021;-74
2022/01/29 05:59:32;;;;;;;91.68;39.33;;;7.70;99.90;;;;;;5074488;28;20036;-75
2022/01/29 06:01:58;;;;;;;89.78;40.53;;;7.60;99.90;;;;;;5076210;28;20020;-74
2022/01/29 06:04:23;;;;;;;92.30;39.40;;;7.60;99.90;;;;;;5081628;28;20033;-75
2022/01/29 06:06:49;;;;;;;83.88;37.75;;;7.60;99.90;;;;;;5074827;28;20044;-75
2022/01/29 06:09:14;;;;;;;90.40;38.88;;;7.70;99.90;;;;;;5074145;28;20024;-75
2022/01/29 06:11:40;;;;;;;93.47;41.58;;;7.70;99.90;;;;;;5072141;28;20557;-75
2022/01/29 06:14:05;;;;;;;96.85;39.20;;;7.70;99.90;;;;;;5073604;28;20036;-75
2022/01/29 06:16:31;;;;;;;90.10;37.40;;;7.70;99.90;;;;;;5072449;28;20027;-75
2022/01/29 06:18:56;;;;;;;96.97;39.92;;;7.70;99.90;;;;;;5073820;28;20020;-74
2022/01/29 06:21:22;;;;;;;62.72;29.05;;;7.80;99.90;;;;;;5073459;28;20032;-74
2022/01/29 06:23:48;;;;;;;84.40;37.55;;;7.80;99.90;;;;;;5073347;28;20024;-74
2022/01/29 06:26:13;;;;;;;94.15;37.45;;;7.80;99.90;;;;;;5078186;28;20025;-74
2022/01/29 06:28:40;;;;;;;89.22;38.50;;;7.80;99.90;;;;;;5086529;28;20029;-74
2022/01/29 06:31:06;;;;;;;88.63;36.42;;;7.80;99.90;;;;;;5089494;28;20040;-74
2022/01/29 06:33:32;;;;;;;77.65;36.17;;;7.80;99.90;;;;;;5078137;28;20059;-74
2022/01/29 06:35:58;;;;;;;84.60;37.95;;;7.80;99.90;;;;;;5077628;28;20473;-74
2022/01/29 06:38:24;;;;;;;77.90;34.83;;;7.80;99.90;;;;;;5076022;28;20119;-74
2022/01/29 06:40:50;;;;;;;82.82;34.97;;;7.70;99.90;;;;;;5076348;28;20393;-74
2022/01/29 06:43:16;;;;;;;79.18;35.83;;;7.70;99.90;;;;;;5082491;28;20024;-74
2022/01/29 06:45:47;;;;;;;71.70;32.92;;;7.80;99.90;;;;;;5082453;28;20033;-74
2022/01/29 06:48:14;;;;;;;80.00;35.78;;;7.80;99.90;;;;;;5079973;28;20023;-74
2022/01/29 06:50:40;;;;;;;78.85;34.00;;;7.80;99.90;;;;;;5084907;28;20096;-75
2022/01/29 06:53:07;;;;;;;71.15;32.45;;;7.80;99.90;;;;;;5087557;28;20101;-74
2022/01/29 06:55:32;;;;;;;73.00;32.33;;;7.80;99.90;;;;;;5089965;28;20078;-74
2022/01/29 06:57:58;;;;;;;70.70;31.65;;;7.80;99.90;;;;;;5087446;28;20024;-74
2022/01/29 07:00:24;;;;;;;66.68;28.98;;;7.80;99.90;;;;;;5109775;22;20474;-69
2022/01/29 07:02:49;;;;;;;64.88;30.13;;;7.80;99.90;;;;;;5078976;28;20154;-69
2022/01/29 07:05:15;;;;;;;68.45;31.15;;;7.80;99.90;;;;;;5083760;28;20035;-69
2022/01/29 07:07:41;;;;;;;66.03;29.42;;;7.80;99.90;;;;;;5080689;28;20028;-70
2022/01/29 07:10:08;;;;;;;59.08;28.23;;;7.70;99.90;;;;;;5068762;28;20028;-69
2022/01/29 07:12:37;;;;;;;56.53;25.85;;;7.80;99.90;;;;;;5063512;28;20017;-69
2022/01/29 07:15:04;;;;;;;61.97;27.67;;;7.80;99.90;;;;;;5066754;28;20028;-69
2022/01/29 07:17:29;;;;;;;50.88;24.00;;;7.80;99.90;;;;;;5069986;28;20497;-70
2022/01/29 07:19:55;;;;;;;52.28;25.25;;;7.80;99.90;;;;;;5056717;28;20027;-69
2022/01/29 07:22:21;;;;;;;51.22;24.63;;;7.80;99.90;;;;;;5043013;28;20053;-69
2022/01/29 07:24:47;;;;;;;51.80;24.92;;;7.80;99.90;;;;;;5062904;28;20028;-69
2022/01/29 07:27:14;;;;;;;46.22;23.13;;;7.80;99.90;;;;;;5057119;28;20036;-69
2022/01/29 07:29:39;;;;;;;45.83;23.40;;;7.80;99.90;;;;;;5057419;28;20035;-70
2022/01/29 07:32:06;;;;;;;44.67;23.23;;;7.90;99.90;;;;;;5059273;28;20083;-69
2022/01/29 07:34:31;;;;;;;48.00;23.08;;;7.90;99.90;;;;;;5078098;28;20051;-69
2022/01/29 07:36:57;;;;;;;47.40;23.30;;;8.00;99.90;;;;;;5058947;28;20036;-69
2022/01/29 07:39:25;;;;;;;38.95;21.65;;;8.00;99.90;;;;;;5077337;28;20028;-69
2022/01/29 07:41:51;;;;;;;40.78;21.75;;;8.00;99.90;;;;;;5077968;28;20103;-69
2022/01/29 07:44:18;;;;;;;39.75;20.73;;;8.00;99.90;;;;;;5077723;28;20393;-69
2022/01/29 07:46:44;;;;;;;41.42;22.33;;;8.00;99.90;;;;;;5077237;28;20020;-69
2022/01/29 07:49:11;;;;;;;43.42;22.98;;;8.00;99.90;;;;;;5078124;28;20025;-69
2022/01/29 07:51:37;;;;;;;42.22;22.63;;;8.00;99.90;;;;;;5078288;28;20027;-69
2022/01/29 07:54:03;;;;;;;39.15;21.02;;;8.00;99.90;;;;;;5077965;28;20529;-69
2022/01/29 07:56:29;;;;;;;44.42;21.23;;;8.00;99.90;;;;;;5063375;28;20037;-69
2022/01/29 07:58:54;;;;;;;39.88;20.98;;;8.00;99.90;;;;;;5057783;28;20047;-68
2022/01/29 08:01:20;;;;;;;42.33;22.00;;;8.10;99.90;;;;;;5057061;28;20087;-69
2022/01/29 08:03:50;;;;;;;42.22;21.10;;;8.00;99.90;;;;;;5058287;28;20090;-68
2022/01/29 08:06:17;;;;;;;40.83;21.60;;;8.00;99.90;;;;;;5058709;28;20355;-68
2022/01/29 08:08:43;;;;;;;37.67;21.02;;;8.10;99.90;;;;;;5058069;28;20032;-68
2022/01/29 08:11:09;;;;;;;35.45;20.20;;;8.00;99.90;;;;;;5058087;28;20033;-69
2022/01/29 08:13:35;;;;;;;40.85;21.33;;;8.10;99.90;;;;;;5061676;28;20021;-68
2022/01/29 08:16:01;;;;;;;37.55;20.30;;;8.00;99.90;;;;;;5058561;28;20505;-70
2022/01/29 08:18:27;;;;;;;38.63;20.67;;;8.10;99.90;;;;;;5060406;28;20102;-69
2022/01/29 08:20:53;;;;;;;43.95;22.17;;;8.10;99.90;;;;;;5042334;28;20029;-69
2022/01/29 08:23:18;;;;;;;39.17;21.27;;;8.10;99.90;;;;;;5065987;28;20040;-70
2022/01/29 08:25:44;;;;;;;40.53;21.45;;;8.10;99.90;;;;;;5066474;28;20549;-70
2022/01/29 08:28:10;;;;;;;42.75;21.55;;;8.10;99.90;;;;;;5061596;28;20032;-69
2022/01/29 08:30:36;;;;;;;37.33;20.27;;;8.00;99.90;;;;;;5061909;28;20051;-69
2022/01/29 08:33:01;;;;;;;41.30;20.88;;;8.10;99.90;;;;;;5059049;28;20392;-69
2022/01/29 08:35:27;;;;;;;34.47;20.27;;;8.10;99.90;;;;;;5054717;28;20024;-68
2022/01/29 08:37:54;;;;;;;40.00;21.52;;;8.20;99.90;;;;;;5078947;28;20042;-69
2022/01/29 08:40:20;;;;;;;37.47;20.38;;;8.20;99.90;;;;;;5078644;28;20097;-68
2022/01/29 08:42:46;;;;;;;37.95;20.48;;;8.20;99.90;;;;;;5077554;28;20016;-68
2022/01/29 08:45:13;;;;;;;39.17;19.45;;;8.20;99.90;;;;;;5075079;28;20103;-69
2022/01/29 08:47:39;;;;;;;37.17;20.35;;;8.20;99.90;;;;;;5075181;28;20028;-68
2022/01/29 08:50:06;;;;;;;36.10;19.95;;;8.20;99.90;;;;;;5075420;28;20396;-69
2022/01/29 08:52:33;;;;;;;37.60;20.67;;;8.20;99.90;;;;;;5076679;28;20021;-69
2022/01/29 08:54:59;;;;;;;38.97;20.83;;;8.30;99.90;;;;;;5058815;28;20028;-69
2022/01/29 08:57:24;;;;;;;33.20;18.58;;;8.30;99.90;;;;;;5077045;28;20021;-69
2022/01/29 08:59:50;;;;;;;37.45;20.50;;;8.40;99.90;;;;;;5076725;28;20154;-69
2022/01/29 09:02:16;;;;;;;34.50;20.05;;;8.30;99.90;;;;;;5076974;28;20127;-69
2022/01/29 09:04:42;;;;;;;37.03;21.70;;;8.40;99.90;;;;;;5077307;28;20039;-69
2022/01/29 09:07:09;;;;;;;36.42;21.23;;;8.40;99.90;;;;;;5076975;28;20020;-69
2022/01/29 09:09:36;;;;;;;33.80;20.17;;;8.40;99.90;;;;;;5076892;28;20070;-68
2022/01/29 09:12:02;;;;;;;34.45;20.92;;;8.40;99.90;;;;;;5058734;28;20028;-69
2022/01/29 09:14:28;;;;;;;41.10;21.75;;;8.40;99.90;;;;;;5077159;28;20024;-69
2022/01/29 09:16:54;;;;;;;33.55;20.25;;;8.40;99.90;;;;;;5076432;28;20021;-69
2022/01/29 09:19:20;;;;;;;34.75;20.17;;;8.50;99.90;;;;;;5060499;28;20028;-68
2022/01/29 09:21:45;;;;;;;36.40;19.58;;;8.50;99.90;;;;;;5077957;28;20028;-68
2022/01/29 09:24:11;;;;;;;42.42;19.65;;;8.60;99.90;;;;;;5060569;28;20543;-68
2022/01/29 09:26:37;;;;;;;35.33;19.58;;;8.60;99.90;;;;;;5077572;28;20033;-69
2022/01/29 09:29:03;;;;;;;34.90;20.80;;;8.60;99.90;;;;;;5076822;28;20032;-69
2022/01/29 09:31:29;;;;;;;33.33;19.17;;;8.60;99.90;;;;;;5077486;28;20397;-69
2022/01/29 09:33:54;;;;;;;37.63;20.00;;;8.60;99.90;;;;;;5076299;28;20051;-69
2022/01/29 09:36:21;;;;;;;32.63;19.00;;;8.60;99.90;;;;;;5076557;28;20535;-68
2022/01/29 09:38:47;;;;;;;30.45;17.60;;;8.60;99.90;;;;;;5077707;28;20021;-68
2022/01/29 09:41:15;;;;;;;29.95;18.48;;;8.70;99.90;;;;;;5075733;28;20028;-69
2022/01/29 09:43:43;;;;;;;32.53;18.52;;;8.70;99.90;;;;;;5075990;28;20099;-69
2022/01/29 09:46:09;;;;;;;28.05;16.92;;;8.80;99.90;;;;;;5076247;28;20031;-69
2022/01/29 09:48:36;;;;;;;29.65;17.02;;;8.80;99.90;;;;;;5075924;28;20029;-68
2022/01/29 09:51:01;;;;;;;28.40;15.98;;;8.90;99.90;;;;;;5076234;28;20389;-68
2022/01/29 09:53:27;;;;;;;26.08;14.45;;;8.90;99.90;;;;;;5076442;28;20109;-68
2022/01/29 09:55:54;;;;;;;27.25;15.30;;;9.00;99.90;;;;;;5076082;28;20410;-69
2022/01/29 09:58:20;;;;;;;29.15;15.73;;;9.00;99.90;;;;;;5057877;28;20074;-69
2022/01/29 10:00:45;;;;;;;24.83;16.27;;;9.00;99.90;;;;;;5057743;28;20047;-69
2022/01/29 10:03:11;;;;;;;29.83;17.23;;;9.10;99.90;;;;;;5076226;28;20025;-68
2022/01/29 10:05:48;;;;;;;24.10;15.98;;;9.10;99.90;;;;;;5076796;28;20020;-69
2022/01/29 10:08:15;;;;;;;27.60;16.42;;;9.10;99.90;;;;;;5076534;28;20021;-68
2022/01/29 10:10:50;;;;;;;30.40;15.45;;;9.10;99.90;;;;;;5076085;28;20512;-68
2022/01/29 10:13:37;;;;;;;23.73;14.68;;;9.20;99.90;;;;;;5057936;28;20033;-68
2022/01/29 10:16:20;;;;;;;21.85;14.90;;;9.30;99.90;;;;;;5077295;28;20028;-69
2022/01/29 10:18:56;;;;;;;21.65;14.32;;;9.30;99.90;;;;;;5077654;28;20387;-69
2022/01/29 10:21:26;;;;;;;21.80;13.82;;;9.30;99.90;;;;;;5076941;28;20029;-69
2022/01/29 10:24:03;;;;;;;21.30;12.93;;;9.40;99.90;;;;;;5063049;28;20028;-68
2022/01/29 10:26:43;;;;;;;20.88;12.88;;;9.40;99.90;;;;;;5071112;28;20025;-70
2022/01/29 10:29:16;;;;;;;21.85;13.18;;;9.40;99.90;;;;;;5076232;28;20020;-69
2022/01/29 10:31:45;;;;;;;21.15;12.98;;;9.40;99.90;;;;;;5075873;28;20515;-70
2022/01/29 10:34:31;;;;;;;25.17;12.95;;;9.40;99.90;;;;;;5068554;28;20082;-70
2022/01/29 10:37:16;;;;;;;19.50;13.85;;;9.40;99.90;;;;;;5069966;28;20490;-70
2022/01/29 10:39:52;;;;;;;22.48;14.30;;;9.40;99.90;;;;;;5076508;28;20036;-69
2022/01/29 10:42:29;;;;;;;24.48;14.25;;;9.30;99.90;;;;;;5049974;28;20093;-70
2022/01/29 10:45:02;;;;;;;25.88;14.88;;;9.30;99.90;;;;;;5069961;28;20152;-69
2022/01/29 10:47:29;;;;;;;23.23;14.32;;;9.30;99.90;;;;;;5076972;28;20025;-71
2022/01/29 10:50:02;;;;;;;24.50;14.65;;;9.30;99.90;;;;;;5075244;28;20033;-69
2022/01/29 10:52:33;;;;;;;28.38;15.43;;;9.30;99.90;;;;;;5074950;28;20031;-70
2022/01/29 10:55:03;;;;;;;;;;;9.30;99.90;;;;;;5075661;28;20028;-72
2022/01/29 10:57:43;;;;;;;24.30;13.80;;;9.30;99.90;;;;;;5056508;28;19916;-68
2022/01/29 11:00:23;;;;;;;24.70;15.23;;;9.40;99.90;;;;;;5074311;28;20060;-68
2022/01/29 11:02:53;;;;;;;22.40;14.10;;;9.40;99.90;;;;;;5044141;28;20032;-70
2022/01/29 11:05:23;;;;;;;21.33;12.95;;;9.40;99.90;;;;;;5056656;28;20055;-71
2022/01/29 11:07:50;;;;;;;21.33;13.10;;;9.40;99.90;;;;;;5075017;28;20047;-70
2022/01/29 11:10:16;;;;;;;20.15;12.93;;;9.40;99.90;;;;;;5074949;28;20025;-71
2022/01/29 11:12:46;;;;;;;20.15;12.65;;;9.50;99.90;;;;;;5078360;28;20367;-71
2022/01/29 11:15:16;;;;;;;20.07;13.93;;;9.50;99.90;;;;;;5079425;28;20034;-70
2022/01/29 11:17:43;;;;;;;22.77;13.55;;;9.50;99.90;;;;;;5079144;28;20028;-71
2022/01/29 11:20:12;;;;;;;17.58;12.65;;;9.60;99.90;;;;;;5080485;28;20024;-69
2022/01/29 11:22:44;;;;;;;16.65;12.13;;;9.60;99.90;;;;;;5081445;28;20024;-69
2022/01/29 11:25:16;;;;;;;23.20;12.75;;;9.70;99.90;;;;;;5058263;28;20029;-70
2022/01/29 11:27:42;;;;;;;20.42;12.77;;;9.70;99.90;;;;;;5083811;28;20044;-70
2022/01/29 11:30:11;;;;;;;17.77;12.45;;;9.70;99.90;;;;;;5082676;28;20478;-69
2022/01/29 11:32:45;;;;;;;20.33;12.80;;;9.80;99.90;;;;;;5060664;28;20111;-70
2022/01/29 11:35:26;;;;;;;20.05;12.57;;;9.80;99.90;;;;;;5078730;28;20017;-70
2022/01/29 11:38:06;;;;;;;14.90;11.25;;;9.80;99.90;;;;;;5071855;28;20020;-70
2022/01/29 11:40:59;;;;;;;19.33;11.52;;;9.80;99.90;;;;;;5067350;28;20499;-71
2022/01/29 11:43:27;;;;;;;19.30;11.45;;;9.90;99.90;;;;;;5062912;28;20037;-68
2022/01/29 11:45:56;;;;;;;18.13;11.82;;;9.90;99.90;;;;;;5060694;28;20044;-70
2022/01/29 11:48:25;;;;;;;15.73;10.40;;;9.90;99.90;;;;;;5077087;28;20029;-69
2022/01/29 11:50:53;;;;;;;17.02;11.80;;;9.90;99.90;;;;;;5070749;28;20142;-69
2022/01/29 11:53:21;;;;;;;16.40;10.30;;;9.90;99.90;;;;;;5072014;28;20055;-69
2022/01/29 11:55:57;;;;;;;15.40;9.73;;;10.00;99.90;;;;;;5059223;28;20543;-69
2022/01/29 11:58:27;;;;;;;18.25;7.93;;;10.00;99.90;;;;;;5067785;28;20478;-69
2022/01/29 12:00:55;;;;;;;9.25;6.85;;;10.10;99.90;;;;;;5077702;28;20056;-71
2022/01/29 12:03:35;;;;;;;11.75;7.47;;;10.10;99.90;;;;;;5077530;28;20025;-72
2022/01/29 12:09:07;;;;;;;10.97;7.57;;;10.10;99.90;;;;;;5074641;28;20120;-70
2022/01/29 12:11:38;;;;;;;12.60;6.82;;;10.10;99.90;;;;;;5070860;28;20039;-69
2022/01/29 12:14:13;;;;;;;10.02;6.60;;;10.20;99.90;;;;;;5039061;28;20509;-69
2022/01/29 12:16:58;;;;;;;15.70;7.03;;;10.20;99.90;;;;;;5065300;28;20048;-71
2022/01/29 12:19:40;;;;;;;12.52;6.60;;;10.20;99.90;;;;;;5077476;28;20031;-68
2022/01/29 12:22:21;;;;;;;12.57;5.47;;;10.20;99.90;;;;;;5058826;28;20099;-69
2022/01/29 12:24:55;;;;;;;12.00;6.13;;;10.20;99.90;;;;;;5077226;28;20029;-68
2022/01/29 12:27:24;;;;;;;9.15;5.45;;;10.30;99.90;;;;;;5077303;28;20485;-72
2022/01/29 12:29:50;;;;;;;6.88;5.55;;;10.30;99.90;;;;;;5076662;28;20060;-71
2022/01/29 12:32:15;;;;;;;11.57;5.10;;;10.40;99.90;;;;;;5076805;28;20090;-71
2022/01/29 12:34:51;;;;;;;9.68;5.03;;;10.40;99.90;;;;;;5058672;28;20020;-69
2022/01/29 12:37:19;;;;;;;7.80;5.35;;;10.50;99.90;;;;;;5077118;28;20108;-72
2022/01/29 12:39:46;;;;;;;10.70;5.07;;;10.50;99.90;;;;;;5058649;28;20046;-71
2022/01/29 12:44:54;;;;;;;5.05;3.70;;;10.50;99.90;;;;;;5077169;28;20428;-69
2022/01/29 12:47:31;;;;;;;9.73;4.13;;;10.50;99.90;;;;;;5077335;28;20435;-69
2022/01/29 12:49:58;;;;;;;11.52;5.50;;;10.50;99.90;;;;;;5077641;28;20094;-69
2022/01/29 12:52:25;;;;;;;11.07;4.50;;;10.50;99.90;;;;;;5076483;28;20476;-69
2022/01/29 12:54:57;;;;;;;6.60;4.20;;;10.50;99.90;;;;;;5076741;28;20362;-69